Time;durP1;ratioP1;P1;durP2;ratioP2;P2;SDS_P1;SDS_P2;PMS_P1;PMS_P2;Temp;Humidity;BMP_temperature;BMP_pressure;BME280_temperature;BME280_humidity;BME280_pressure;Samples;Min_cycle;Max_cycle;Signal;HPM_P1;HPM_P2
2024/04/09 00:01:08;;;;;;;3.50;2.37;;;22.10;94.30;;;;;;5313563;26;20474;-42
2024/04/09 00:03:37;;;;;;;3.30;2.17;;;22.10;94.20;;;;;;5316436;26;22484;-43
2024/04/09 00:06:14;;;;;;;2.50;1.77;;;22.10;94.10;;;;;;5312791;26;20564;-43
2024/04/09 00:08:45;;;;;;;2.90;1.67;;;22.10;94.20;;;;;;5313111;26;21083;-43
2024/04/09 00:11:20;;;;;;;2.17;2.07;;;22.10;94.20;;;;;;5307602;26;20528;-42
2024/04/09 00:13:51;;;;;;;1.93;1.73;;;22.00;94.20;;;;;;5314215;26;20465;-42
2024/04/09 00:16:22;;;;;;;2.73;2.43;;;22.00;94.20;;;;;;5305867;26;20533;-43
2024/04/09 00:18:58;;;;;;;2.10;1.80;;;22.10;94.30;;;;;;5314447;26;21047;-41
2024/04/09 00:21:33;;;;;;;2.13;1.93;;;22.00;94.20;;;;;;5313947;26;21659;-43
2024/04/09 00:24:05;;;;;;;1.80;1.70;;;22.00;94.30;;;;;;5317616;26;20512;-42
2024/04/09 00:26:36;;;;;;;2.53;2.20;;;22.00;94.10;;;;;;5315421;26;20555;-43
2024/04/09 00:29:16;;;;;;;2.20;1.70;;;22.00;94.20;;;;;;5316645;26;20473;-42
2024/04/09 00:31:42;;;;;;;2.20;1.80;;;22.00;94.20;;;;;;5314063;26;20477;-43
2024/04/09 00:34:25;;;;;;;2.27;1.83;;;22.00;94.30;;;;;;5316364;26;21410;-42
2024/04/09 00:36:57;;;;;;;1.67;1.57;;;21.90;94.20;;;;;;5313433;26;20237;-43
2024/04/09 00:39:27;;;;;;;1.90;1.70;;;22.00;94.30;;;;;;5313827;26;20465;-41
2024/04/09 00:41:56;;;;;;;1.87;1.57;;;22.00;94.30;;;;;;5313759;26;20480;-43
2024/04/09 00:44:28;;;;;;;1.60;1.40;;;21.90;94.30;;;;;;5310353;26;20763;-41
2024/04/09 00:46:59;;;;;;;1.83;1.60;;;21.90;94.30;;;;;;5311813;26;20969;-43
2024/04/09 00:49:30;;;;;;;1.73;1.40;;;21.90;94.30;;;;;;5315555;26;21412;-43
2024/04/09 00:51:59;;;;;;;1.73;1.57;;;21.90;94.30;;;;;;5314111;26;20464;-43
2024/04/09 00:54:30;;;;;;;1.60;1.50;;;21.90;94.40;;;;;;5315036;26;20569;-43
2024/04/09 00:56:57;;;;;;;1.63;1.53;;;21.90;94.40;;;;;;5319769;26;20515;-43
2024/04/09 00:59:31;;;;;;;2.00;1.67;;;21.90;94.40;;;;;;5313134;26;20468;-43
2024/04/09 01:02:00;;;;;;;1.57;1.40;;;21.90;94.50;;;;;;5314237;26;21557;-43
2024/04/09 01:04:29;;;;;;;1.97;1.63;;;21.90;94.30;;;;;;5316860;26;20619;-42
2024/04/09 01:06:54;;;;;;;1.47;1.27;;;21.90;94.40;;;;;;5316737;26;21338;-42
2024/04/09 01:09:34;;;;;;;2.00;1.70;;;21.80;94.40;;;;;;5314133;26;20862;-44
2024/04/09 01:12:02;;;;;;;2.03;1.83;;;21.80;94.50;;;;;;5313291;26;20622;-44
2024/04/09 01:14:40;;;;;;;2.17;1.53;;;21.80;94.50;;;;;;5309345;26;21683;-42
2024/04/09 01:17:09;;;;;;;1.77;1.60;;;21.80;94.50;;;;;;5310429;26;20469;-43
2024/04/09 01:19:37;;;;;;;2.70;1.87;;;21.90;94.60;;;;;;5312214;26;20525;-43
2024/04/09 01:22:04;;;;;;;1.77;1.67;;;21.80;94.50;;;;;;5314233;26;20569;-43
2024/04/09 01:24:41;;;;;;;1.70;1.50;;;21.80;94.60;;;;;;5316245;26;21574;-41
2024/04/09 01:27:12;;;;;;;1.60;1.50;;;21.80;94.60;;;;;;5303182;26;20521;-43
2024/04/09 01:29:41;;;;;;;1.47;1.37;;;21.80;94.60;;;;;;5311094;26;20642;-43
2024/04/09 01:32:12;;;;;;;1.67;1.30;;;21.70;94.60;;;;;;5314423;26;20676;-44
2024/04/09 01:34:41;;;;;;;2.75;1.70;;;21.70;94.60;;;;;;5314372;26;20465;-42
2024/04/09 01:37:11;;;;;;;1.87;1.70;;;21.70;94.60;;;;;;5298941;26;20278;-43
2024/04/09 01:39:47;;;;;;;1.67;1.53;;;21.70;94.70;;;;;;5315381;26;20494;-43
2024/04/09 01:42:14;;;;;;;2.00;1.77;;;21.70;94.80;;;;;;5312660;26;22820;-43
2024/04/09 01:44:44;;;;;;;2.03;1.80;;;21.70;94.80;;;;;;5314171;26;20372;-42
2024/04/09 01:47:10;;;;;;;2.03;1.70;;;21.70;94.80;;;;;;5301822;26;21360;-43
2024/04/09 01:49:40;;;;;;;1.80;1.57;;;21.70;94.80;;;;;;5318450;26;20603;-43
2024/04/09 01:52:08;;;;;;;1.80;1.70;;;21.60;94.80;;;;;;5315322;26;20242;-42
2024/04/09 01:54:36;;;;;;;2.22;1.50;;;21.60;94.80;;;;;;5319709;26;23283;-41
2024/04/09 01:57:05;;;;;;;1.50;1.40;;;21.50;94.80;;;;;;5318917;26;20240;-43
2024/04/09 01:59:39;;;;;;;2.10;1.90;;;21.60;94.80;;;;;;5316611;26;20526;-45
2024/04/09 02:02:28;;;;;;;1.90;1.80;;;21.60;94.80;;;;;;5315882;26;20865;-43
2024/04/09 02:04:59;;;;;;;1.73;1.50;;;21.70;95.00;;;;;;5320162;26;20472;-43
2024/04/09 02:07:34;;;;;;;1.45;1.20;;;21.60;94.90;;;;;;5302014;26;20976;-37
2024/04/09 02:10:05;;;;;;;2.00;1.90;;;21.60;94.90;;;;;;5315891;26;20368;-38
2024/04/09 02:12:48;;;;;;;1.60;1.50;;;21.60;94.90;;;;;;5319962;26;20638;-38
2024/04/09 02:15:17;;;;;;;2.33;1.80;;;21.60;94.90;;;;;;5317177;26;21072;-38
2024/04/09 02:17:45;;;;;;;1.87;1.40;;;21.60;94.90;;;;;;5311069;26;21291;-37
2024/04/09 02:20:15;;;;;;;1.55;1.45;;;21.60;94.90;;;;;;5314750;26;20990;-37
2024/04/09 02:22:43;;;;;;;2.17;1.67;;;21.60;94.90;;;;;;5315873;26;20240;-37
2024/04/09 02:25:11;;;;;;;1.77;1.67;;;21.60;95.00;;;;;;5316722;26;20377;-37
2024/04/09 02:27:42;;;;;;;2.17;1.80;;;21.60;95.00;;;;;;5316237;26;20516;-37
2024/04/09 02:30:12;;;;;;;1.87;1.63;;;21.50;94.90;;;;;;5316777;26;20602;-37
2024/04/09 02:32:46;;;;;;;2.42;1.85;;;21.50;95.00;;;;;;5314646;26;20469;-37
2024/04/09 02:35:11;;;;;;;2.05;1.80;;;21.60;95.00;;;;;;5316350;26;20863;-37
2024/04/09 02:37:42;;;;;;;1.50;1.40;;;21.50;95.00;;;;;;5316059;26;21054;-37
2024/04/09 02:40:15;;;;;;;1.67;1.50;;;21.50;95.00;;;;;;5309946;26;20786;-37
2024/04/09 02:42:47;;;;;;;3.40;1.60;;;21.50;95.10;;;;;;5312808;26;20478;-37
2024/04/09 02:45:18;;;;;;;1.23;1.13;;;21.50;95.10;;;;;;5313024;26;20521;-38
2024/04/09 02:47:53;;;;;;;1.40;1.30;;;21.50;95.10;;;;;;5314712;26;22043;-38
2024/04/09 02:50:21;;;;;;;1.80;1.50;;;21.50;95.10;;;;;;5315081;26;20332;-37
2024/04/09 02:52:51;;;;;;;1.43;1.33;;;21.60;95.20;;;;;;5310604;26;20555;-37
2024/04/09 02:55:17;;;;;;;2.43;1.70;;;21.50;95.20;;;;;;5317120;26;20470;-37
2024/04/09 02:57:50;;;;;;;2.13;1.93;;;21.40;95.10;;;;;;5314518;26;20513;-37
2024/04/09 03:00:19;;;;;;;2.05;1.85;;;21.40;95.20;;;;;;5318195;26;20534;-36
2024/04/09 03:02:56;;;;;;;1.73;1.52;;;21.40;95.20;;;;;;5317894;26;20256;-36
2024/04/09 03:05:29;;;;;;;1.40;1.30;;;21.40;95.20;;;;;;5316479;26;20333;-41
2024/04/09 03:07:59;;;;;;;1.30;1.20;;;21.40;95.30;;;;;;5305577;26;21481;-37
2024/04/09 03:10:33;;;;;;;1.42;1.33;;;21.40;95.30;;;;;;5314423;26;20533;-37
2024/04/09 03:13:07;;;;;;;1.50;1.40;;;21.40;95.30;;;;;;5321355;26;20711;-37
2024/04/09 03:15:35;;;;;;;2.70;1.37;;;21.40;95.30;;;;;;5310580;26;20236;-37
2024/04/09 03:18:04;;;;;;;1.63;1.40;;;21.40;95.30;;;;;;5308521;26;20477;-38
2024/04/09 03:20:35;;;;;;;1.80;1.50;;;21.40;95.30;;;;;;5312452;26;20278;-37
2024/04/09 03:23:07;;;;;;;1.40;1.30;;;21.30;95.30;;;;;;5297930;26;21042;-37
2024/04/09 03:25:42;;;;;;;1.50;1.27;;;21.30;95.40;;;;;;5315820;26;20533;-38
2024/04/09 03:28:13;;;;;;;1.60;1.50;;;21.30;95.40;;;;;;5308477;26;20379;-37
2024/04/09 03:30:43;;;;;;;1.43;1.20;;;21.30;95.40;;;;;;5318363;26;20496;-37
2024/04/09 03:33:13;;;;;;;2.20;1.53;;;21.40;95.50;;;;;;5313964;26;20524;-38
2024/04/09 03:35:39;;;;;;;1.40;1.23;;;21.30;95.40;;;;;;5315194;26;20475;-37
2024/04/09 03:38:08;;;;;;;1.70;1.60;;;21.30;95.50;;;;;;5304541;26;20473;-37
2024/04/09 03:40:41;;;;;;;1.30;1.17;;;21.30;95.50;;;;;;5321434;26;20236;-37
2024/04/09 03:43:16;;;;;;;1.77;1.67;;;21.30;95.50;;;;;;5310808;26;20525;-36
2024/04/09 03:46:03;;;;;;;1.40;1.30;;;21.30;95.90;;;;;;5315542;26;20855;-37
2024/04/09 03:48:33;;;;;;;1.50;1.40;;;21.30;95.60;;;;;;5315402;26;21680;-37
2024/04/09 03:50:59;;;;;;;1.43;1.33;;;21.30;95.60;;;;;;5318549;26;20364;-37
2024/04/09 03:53:33;;;;;;;1.60;1.37;;;21.30;95.70;;;;;;5316838;26;20553;-37
2024/04/09 03:56:06;;;;;;;1.60;1.50;;;21.30;95.70;;;;;;5319432;26;20533;-37
2024/04/09 03:58:40;;;;;;;1.67;1.50;;;21.30;95.80;;;;;;5316112;26;20556;-37
2024/04/09 04:01:10;;;;;;;1.73;1.60;;;21.20;95.70;;;;;;5316201;26;21022;-37
2024/04/09 04:03:42;;;;;;;1.90;1.42;;;21.20;95.70;;;;;;5307769;26;20243;-37
2024/04/09 04:06:10;;;;;;;1.60;1.50;;;21.20;95.80;;;;;;5289796;26;21009;-37
2024/04/09 04:08:40;;;;;;;2.03;1.80;;;21.20;95.80;;;;;;5312917;26;22520;-37
2024/04/09 04:11:09;;;;;;;1.40;1.10;;;21.20;95.80;;;;;;5314710;26;20915;-37
2024/04/09 04:13:41;;;;;;;1.70;1.50;;;21.20;95.80;;;;;;5313210;26;20244;-37
2024/04/09 04:16:12;;;;;;;1.60;1.43;;;21.20;95.90;;;;;;5313635;26;20240;-37
2024/04/09 04:18:47;;;;;;;2.23;1.50;;;21.10;95.90;;;;;;5313107;26;21331;-38
2024/04/09 04:21:16;;;;;;;1.73;1.30;;;21.10;95.90;;;;;;5313432;26;20525;-37
2024/04/09 04:23:51;;;;;;;2.20;1.45;;;21.10;95.90;;;;;;5315597;26;20274;-37
2024/04/09 04:26:34;;;;;;;1.40;1.30;;;21.10;95.90;;;;;;5309732;26;21040;-38
2024/04/09 04:29:11;;;;;;;1.70;1.30;;;21.10;95.90;;;;;;5311339;26;20256;-37
2024/04/09 04:31:39;;;;;;;1.43;1.27;;;21.10;95.90;;;;;;5315892;26;20477;-36
2024/04/09 04:34:11;;;;;;;1.30;1.20;;;21.10;96.00;;;;;;5315243;26;21097;-37
2024/04/09 04:36:41;;;;;;;1.97;1.60;;;21.10;96.00;;;;;;5309920;26;20698;-37
2024/04/09 04:39:22;;;;;;;;;;;;;;;;;;;;;
2024/04/09 04:41:51;;;;;;;1.60;1.48;;;21.10;96.00;;;;;;5310697;26;22846;-38
2024/04/09 04:44:37;;;;;;;1.65;1.55;;;21.00;96.00;;;;;;5304094;26;20677;-37
2024/04/09 04:47:14;;;;;;;1.20;1.10;;;21.00;96.00;;;;;;5317799;26;21054;-37
2024/04/09 04:49:41;;;;;;;1.60;1.50;;;21.00;96.10;;;;;;5312589;26;20251;-38
2024/04/09 04:52:12;;;;;;;2.03;1.30;;;21.00;96.10;;;;;;5312833;26;22343;-37
2024/04/09 04:54:40;;;;;;;1.60;1.42;;;21.00;96.10;;;;;;5314884;26;20721;-38
2024/04/09 04:57:11;;;;;;;1.30;1.20;;;21.00;96.20;;;;;;5310692;26;20719;-37
2024/04/09 04:59:41;;;;;;;1.40;1.20;;;21.00;96.20;;;;;;5319259;26;20484;-37
2024/04/09 05:02:12;;;;;;;2.00;1.55;;;21.00;96.20;;;;;;5319767;26;20730;-37
2024/04/09 05:04:41;;;;;;;1.60;1.40;;;21.00;96.20;;;;;;5315079;26;20286;-38
2024/04/09 05:07:15;;;;;;;1.92;1.40;;;21.00;96.20;;;;;;5315695;26;21063;-37
2024/04/09 05:09:43;;;;;;;1.45;1.33;;;21.00;96.30;;;;;;5313774;26;22379;-37
2024/04/09 05:12:14;;;;;;;1.48;1.38;;;21.00;96.30;;;;;;5305569;26;20278;-37
2024/04/09 05:14:42;;;;;;;1.60;1.48;;;21.00;96.30;;;;;;5320435;26;20299;-37
2024/04/09 05:17:14;;;;;;;1.37;1.27;;;20.90;96.30;;;;;;5318317;26;21092;-37
2024/04/09 05:19:42;;;;;;;1.40;1.30;;;20.90;96.30;;;;;;5304064;26;21090;-38
2024/04/09 05:22:17;;;;;;;1.40;1.27;;;20.90;96.30;;;;;;5313065;26;20365;-38
2024/04/09 05:24:50;;;;;;;1.60;1.30;;;20.90;96.40;;;;;;5320495;26;20532;-37
2024/04/09 05:27:15;;;;;;;1.85;1.40;;;20.90;96.40;;;;;;5310781;26;20251;-37
2024/04/09 05:29:54;;;;;;;1.97;1.53;;;20.90;96.40;;;;;;5316446;26;20385;-37
2024/04/09 05:32:21;;;;;;;1.80;1.38;;;20.90;96.40;;;;;;5317627;26;20260;-37
2024/04/09 05:34:54;;;;;;;2.15;1.50;;;20.90;96.50;;;;;;5305130;26;22114;-38
2024/04/09 05:37:22;;;;;;;1.10;1.00;;;21.00;96.50;;;;;;5308397;26;20244;-37
2024/04/09 05:39:57;;;;;;;2.30;1.43;;;20.90;96.50;;;;;;5318363;26;22747;-37
2024/04/09 05:42:27;;;;;;;1.60;1.50;;;20.90;96.50;;;;;;5310333;26;21284;-37
2024/04/09 05:45:03;;;;;;;1.55;1.45;;;20.90;96.60;;;;;;5313944;26;20288;-38
2024/04/09 05:47:33;;;;;;;1.60;1.50;;;20.90;96.60;;;;;;5314623;26;21696;-38
2024/04/09 05:50:12;;;;;;;1.55;1.45;;;20.90;96.70;;;;;;5319043;26;21175;-38
2024/04/09 05:52:38;;;;;;;2.15;1.67;;;20.90;96.70;;;;;;5281634;26;20239;-38
2024/04/09 05:55:09;;;;;;;1.60;1.23;;;20.90;96.70;;;;;;5312082;26;20869;-38
2024/04/09 05:57:39;;;;;;;4.75;3.35;;;20.90;97.00;;;;;;5313794;26;20470;-38
2024/04/09 06:00:20;;;;;;;1.80;1.30;;;20.80;97.20;;;;;;5312438;26;20262;-36
2024/04/09 06:02:48;;;;;;;4.18;1.45;;;20.80;97.50;;;;;;5315831;26;20325;-38
2024/04/09 06:05:18;;;;;;;2.72;1.60;;;20.80;97.70;;;;;;5309047;26;20361;-38
2024/04/09 06:07:44;;;;;;;1.50;1.33;;;20.90;97.80;;;;;;5308488;26;20332;-37
2024/04/09 06:10:18;;;;;;;3.67;1.50;;;20.90;98.10;;;;;;5307226;26;21276;-36
2024/04/09 06:12:47;;;;;;;1.50;1.40;;;20.80;98.00;;;;;;5310192;26;20630;-36
2024/04/09 06:15:31;;;;;;;3.05;1.70;;;20.80;98.00;;;;;;5304692;26;20239;-37
2024/04/09 06:17:58;;;;;;;3.90;2.47;;;20.80;98.10;;;;;;5315554;26;20286;-37
2024/04/09 06:20:34;;;;;;;2.78;1.75;;;20.80;98.10;;;;;;5308649;26;20605;-37
2024/04/09 06:22:59;;;;;;;2.92;1.50;;;20.80;98.10;;;;;;5310538;26;22899;-37
2024/04/09 06:25:32;;;;;;;2.73;1.50;;;20.80;98.10;;;;;;5303719;26;20859;-36
2024/04/09 06:28:00;;;;;;;2.58;1.60;;;20.80;98.10;;;;;;5314781;26;20477;-37
2024/04/09 06:30:39;;;;;;;2.20;1.80;;;20.80;98.20;;;;;;5312007;26;20267;-36
2024/04/09 06:33:12;;;;;;;1.88;1.25;;;20.80;98.20;;;;;;5313873;26;20294;-37
2024/04/09 06:35:45;;;;;;;4.95;1.65;;;20.80;98.10;;;;;;5319952;26;20358;-37
2024/04/09 06:38:12;;;;;;;3.25;2.00;;;20.80;98.20;;;;;;5310296;26;20235;-37
2024/04/09 06:40:46;;;;;;;2.85;1.42;;;20.80;98.20;;;;;;5309114;26;22844;-37
2024/04/09 06:43:17;;;;;;;2.80;1.80;;;20.70;98.30;;;;;;5305849;26;20235;-37
2024/04/09 06:45:55;;;;;;;2.85;1.33;;;20.80;98.60;;;;;;5314011;26;20261;-38
2024/04/09 06:48:23;;;;;;;2.20;1.60;;;20.90;98.60;;;;;;5314164;26;20352;-37
2024/04/09 06:50:52;;;;;;;3.93;1.77;;;21.10;98.50;;;;;;5311556;26;21574;-37
2024/04/09 06:53:25;;;;;;;5.70;1.47;;;21.30;98.40;;;;;;5311262;26;20524;-37
2024/04/09 06:55:54;;;;;;;3.83;1.77;;;21.50;98.50;;;;;;5315021;26;20911;-37
2024/04/09 06:58:22;;;;;;;3.33;1.80;;;21.60;98.20;;;;;;5310592;26;20473;-37
2024/04/09 07:00:56;;;;;;;3.97;1.67;;;21.70;97.60;;;;;;5312693;26;20604;-37
2024/04/09 07:03:24;;;;;;;2.40;1.40;;;21.70;99.90;;;;;;5317053;26;20480;-37
2024/04/09 07:05:52;;;;;;;2.30;1.50;;;22.20;99.90;;;;;;5313964;26;21209;-38
2024/04/09 07:08:25;;;;;;;3.83;1.70;;;21.70;99.90;;;;;;5318094;26;22674;-38
2024/04/09 07:10:58;;;;;;;4.90;2.10;;;21.80;99.90;;;;;;5316637;26;20500;-36
2024/04/09 07:13:32;;;;;;;1.93;1.67;;;21.80;99.90;;;;;;5317394;26;20889;-37
2024/04/09 07:16:05;;;;;;;2.30;1.70;;;21.90;99.90;;;;;;5319104;26;20465;-38
2024/04/09 07:18:41;;;;;;;2.60;1.57;;;21.60;99.90;;;;;;5321478;26;20464;-37
2024/04/09 07:21:17;;;;;;;1.70;1.50;;;21.50;99.90;;;;;;5321084;26;21299;-37
2024/04/09 07:23:49;;;;;;;1.87;1.27;;;21.80;99.90;;;;;;5319564;26;21024;-37
2024/04/09 07:26:26;;;;;;;1.40;1.10;;;21.70;99.90;;;;;;5318961;26;20568;-37
2024/04/09 07:28:56;;;;;;;3.20;1.80;;;21.80;99.90;;;;;;5317606;26;20480;-37
2024/04/09 07:31:29;;;;;;;2.17;1.70;;;21.70;99.90;;;;;;5316050;26;20890;-36
2024/04/09 07:33:56;;;;;;;3.10;1.70;;;21.60;99.90;;;;;;5321285;26;23682;-37
2024/04/09 07:36:27;;;;;;;2.07;1.50;;;21.60;99.90;;;;;;5317569;26;20836;-37
2024/04/09 07:38:58;;;;;;;1.60;1.40;;;22.00;99.90;;;;;;5319764;26;20465;-37
2024/04/09 07:41:30;;;;;;;3.27;1.43;;;22.20;99.90;;;;;;5319602;26;20469;-37
2024/04/09 07:43:58;;;;;;;1.90;1.60;;;22.10;99.90;;;;;;5313457;26;20514;-37
2024/04/09 07:46:33;;;;;;;2.33;1.40;;;22.20;99.90;;;;;;5307419;26;20890;-37
2024/04/09 07:49:00;;;;;;;2.77;1.60;;;21.70;99.90;;;;;;5313561;26;21377;-38
2024/04/09 07:51:30;;;;;;;3.97;1.60;;;21.90;99.90;;;;;;5297371;26;20873;-37
2024/04/09 07:54:01;;;;;;;2.63;1.77;;;21.70;99.90;;;;;;5315719;26;20477;-37
2024/04/09 07:56:36;;;;;;;2.07;1.47;;;21.70;99.80;;;;;;5316818;26;21040;-37
2024/04/09 07:59:06;;;;;;;1.53;1.37;;;22.40;99.90;;;;;;5316182;26;20483;-37
2024/04/09 08:01:40;;;;;;;2.90;1.20;;;22.20;99.90;;;;;;5307877;26;20870;-36
2024/04/09 08:04:07;;;;;;;1.70;1.47;;;22.30;99.80;;;;;;5313930;26;20647;-37
2024/04/09 08:06:42;;;;;;;1.60;1.37;;;21.90;99.50;;;;;;5312674;26;20623;-37
2024/04/09 08:09:11;;;;;;;2.03;1.50;;;22.00;99.60;;;;;;5321295;26;20476;-37
2024/04/09 08:11:44;;;;;;;2.03;1.10;;;21.70;99.30;;;;;;5316989;26;20479;-37
2024/04/09 08:14:16;;;;;;;2.73;2.03;;;21.80;99.40;;;;;;5317004;26;21286;-37
2024/04/09 08:16:49;;;;;;;3.73;1.60;;;22.50;99.70;;;;;;5316351;26;20596;-36
2024/04/09 08:19:22;;;;;;;2.13;1.10;;;21.70;99.10;;;;;;5318370;26;21272;-37
2024/04/09 08:21:50;;;;;;;2.87;1.20;;;21.90;99.10;;;;;;5313374;26;21460;-37
2024/04/09 08:24:23;;;;;;;3.63;1.80;;;21.90;99.20;;;;;;5315805;26;21198;-36
2024/04/09 08:26:53;;;;;;;1.47;1.33;;;21.80;99.00;;;;;;5316045;26;20512;-38
2024/04/09 08:29:23;;;;;;;3.10;1.67;;;21.80;99.00;;;;;;5313422;26;20513;-38
2024/04/09 08:31:56;;;;;;;1.83;1.40;;;21.80;98.90;;;;;;5319396;26;20951;-37
2024/04/09 08:34:26;;;;;;;2.10;1.50;;;22.30;99.10;;;;;;5305764;26;20469;-37
2024/04/09 08:36:57;;;;;;;1.70;1.47;;;21.50;98.70;;;;;;5316044;26;21134;-37
2024/04/09 08:39:25;;;;;;;2.73;2.50;;;21.70;98.80;;;;;;5318821;26;23118;-36
2024/04/09 08:41:56;;;;;;;2.83;1.90;;;22.30;99.00;;;;;;5320353;26;22899;-37
2024/04/09 08:44:27;;;;;;;1.47;1.20;;;21.90;98.80;;;;;;5318089;26;20657;-37
2024/04/09 08:47:08;;;;;;;2.13;1.23;;;22.00;98.80;;;;;;5319237;26;20548;-37
2024/04/09 08:49:34;;;;;;;1.97;1.50;;;22.40;98.90;;;;;;5318228;26;21156;-37
2024/04/09 08:52:05;;;;;;;2.13;1.43;;;21.90;98.60;;;;;;5315110;26;21012;-37
2024/04/09 08:54:36;;;;;;;2.27;1.30;;;21.80;98.50;;;;;;5314041;26;21050;-37
2024/04/09 08:57:05;;;;;;;1.67;1.20;;;21.90;98.80;;;;;;5319570;26;21223;-37
2024/04/09 08:59:32;;;;;;;1.63;1.50;;;21.90;98.50;;;;;;5322364;26;20533;-38
2024/04/09 09:02:15;;;;;;;1.10;1.00;;;22.00;98.40;;;;;;5316746;26;20706;-37
2024/04/09 09:04:45;;;;;;;1.80;1.27;;;22.10;98.40;;;;;;5319409;26;20524;-37
2024/04/09 09:07:18;;;;;;;1.53;1.23;;;21.90;98.30;;;;;;5322317;26;20458;-37
2024/04/09 09:10:03;;;;;;;2.73;1.33;;;22.00;98.40;;;;;;5324407;26;20470;-36
2024/04/09 09:12:31;;;;;;;2.70;1.00;;;21.70;98.20;;;;;;5317347;26;21575;-37
2024/04/09 09:15:00;;;;;;;1.97;1.37;;;21.80;98.20;;;;;;5323590;26;20478;-38
2024/04/09 09:17:34;;;;;;;1.33;1.10;;;22.30;98.60;;;;;;5321284;26;22379;-38
2024/04/09 09:20:08;;;;;;;2.53;1.57;;;21.90;98.30;;;;;;5323567;26;20465;-37
2024/04/09 09:22:52;;;;;;;1.43;1.33;;;21.90;98.10;;;;;;5324162;26;20528;-36
2024/04/09 09:25:22;;;;;;;1.70;1.10;;;21.70;98.00;;;;;;5321493;26;20684;-36
2024/04/09 09:28:06;;;;;;;2.60;1.80;;;22.40;98.40;;;;;;5323123;26;20472;-37
2024/04/09 09:30:40;;;;;;;1.67;1.23;;;22.00;98.20;;;;;;5319425;26;20631;-38
2024/04/09 09:33:20;;;;;;;1.47;1.37;;;21.90;98.10;;;;;;5322847;26;20983;-37
2024/04/09 09:35:53;;;;;;;1.97;1.20;;;21.90;98.20;;;;;;5322391;26;22543;-37
2024/04/09 09:38:35;;;;;;;2.70;1.73;;;21.80;97.80;;;;;;5325695;26;21024;-38
2024/04/09 09:41:04;;;;;;;1.97;1.37;;;21.80;97.90;;;;;;5324924;26;20612;-36
2024/04/09 09:43:34;;;;;;;1.50;1.40;;;21.80;97.90;;;;;;5321314;26;20465;-38
2024/04/09 09:46:09;;;;;;;2.53;1.10;;;21.80;97.90;;;;;;5321910;26;21946;-37
2024/04/09 09:48:45;;;;;;;1.30;1.00;;;21.80;97.70;;;;;;5321174;26;20473;-38
2024/04/09 09:51:14;;;;;;;2.40;1.77;;;21.80;97.70;;;;;;5321697;26;21638;-37
2024/04/09 09:53:47;;;;;;;1.60;1.50;;;21.80;98.10;;;;;;5319250;26;22745;-37
2024/04/09 09:56:21;;;;;;;1.50;1.40;;;21.80;97.90;;;;;;5323401;26;20515;-37
2024/04/09 09:58:50;;;;;;;1.70;1.20;;;21.80;98.00;;;;;;5321220;26;20476;-37
2024/04/09 10:01:25;;;;;;;2.03;1.40;;;21.80;98.00;;;;;;5325451;26;20484;-37
2024/04/09 10:04:03;;;;;;;2.00;1.50;;;21.90;98.00;;;;;;5325491;26;20477;-37
2024/04/09 10:06:30;;;;;;;1.80;1.63;;;21.70;98.00;;;;;;5321100;26;22634;-37
2024/04/09 10:09:18;;;;;;;2.90;1.17;;;21.90;98.00;;;;;;5312931;26;21333;-37
2024/04/09 10:11:48;;;;;;;1.77;1.50;;;21.70;97.90;;;;;;5307930;26;21204;-37
2024/04/09 10:14:31;;;;;;;2.00;1.50;;;21.80;98.10;;;;;;5321835;26;20595;-37
2024/04/09 10:17:11;;;;;;;2.27;1.40;;;21.80;98.00;;;;;;5320458;26;20481;-37
2024/04/09 10:19:44;;;;;;;1.30;1.10;;;21.90;98.10;;;;;;5320358;26;23341;-37
2024/04/09 10:22:17;;;;;;;2.30;1.30;;;21.70;98.50;;;;;;5322690;26;20513;-37
2024/04/09 10:24:45;;;;;;;1.30;1.10;;;21.70;98.10;;;;;;5322791;26;20468;-37
2024/04/09 10:27:17;;;;;;;2.23;1.23;;;21.70;98.10;;;;;;5318085;26;20475;-37
2024/04/09 10:29:58;;;;;;;1.40;1.03;;;22.10;98.20;;;;;;5322433;26;22357;-38
2024/04/09 10:32:24;;;;;;;1.50;1.40;;;21.60;98.30;;;;;;5320865;26;20586;-37
2024/04/09 10:35:14;;;;;;;1.17;1.07;;;21.70;98.30;;;;;;5324170;26;20534;-37
2024/04/09 10:37:47;;;;;;;2.03;1.43;;;21.70;98.30;;;;;;5321892;26;20648;-37
2024/04/09 10:40:17;;;;;;;2.03;1.20;;;21.80;98.40;;;;;;5323557;26;20525;-37
2024/04/09 10:42:47;;;;;;;1.50;1.20;;;21.90;98.50;;;;;;5320046;26;20566;-37
2024/04/09 10:45:18;;;;;;;1.20;1.10;;;21.70;98.40;;;;;;5317776;26;20524;-37
2024/04/09 10:47:50;;;;;;;1.80;1.40;;;21.70;98.20;;;;;;5313676;26;20481;-38
2024/04/09 10:50:22;;;;;;;1.30;1.10;;;22.20;98.60;;;;;;5324501;26;20813;-37
2024/04/09 10:52:50;;;;;;;1.63;1.37;;;21.90;98.30;;;;;;5321699;26;22635;-37
2024/04/09 10:55:20;;;;;;;2.23;1.30;;;21.30;97.80;;;;;;5321862;26;20469;-38
2024/04/09 10:57:53;;;;;;;1.50;1.13;;;22.20;98.20;;;;;;5317454;26;20473;-37
2024/04/09 11:00:28;;;;;;;1.47;1.20;;;21.80;98.30;;;;;;5320005;26;20478;-38
2024/04/09 11:02:54;;;;;;;1.30;1.20;;;21.90;98.10;;;;;;5321975;26;20483;-37
2024/04/09 11:05:27;;;;;;;2.80;1.63;;;21.80;98.10;;;;;;5321297;26;23075;-37
2024/04/09 11:07:52;;;;;;;2.30;1.33;;;22.30;98.30;;;;;;5315923;26;20696;-37
2024/04/09 11:10:22;;;;;;;2.40;1.30;;;21.80;98.10;;;;;;5318904;26;21286;-37
2024/04/09 11:12:49;;;;;;;1.30;1.20;;;21.80;98.00;;;;;;5321979;26;22894;-37
2024/04/09 11:15:18;;;;;;;1.93;1.33;;;21.80;98.10;;;;;;5317960;26;20597;-37
2024/04/09 11:17:44;;;;;;;1.30;1.17;;;22.30;98.10;;;;;;5322592;26;20622;-37
2024/04/09 11:20:29;;;;;;;1.83;1.60;;;21.80;98.00;;;;;;5319365;26;21040;-37
2024/04/09 11:22:57;;;;;;;1.60;1.20;;;22.00;97.90;;;;;;5319257;26;20465;-37
2024/04/09 11:25:25;;;;;;;2.50;1.30;;;22.00;98.00;;;;;;5318715;26;20528;-37
2024/04/09 11:27:55;;;;;;;1.63;1.20;;;22.30;98.20;;;;;;5318372;26;20534;-37
2024/04/09 11:30:34;;;;;;;2.40;1.30;;;22.00;98.00;;;;;;5321365;26;20606;-37
2024/04/09 11:33:02;;;;;;;1.77;1.43;;;22.00;97.70;;;;;;5322116;26;20507;-37
2024/04/09 11:35:39;;;;;;;1.87;1.77;;;22.10;97.90;;;;;;5318164;26;20473;-37
2024/04/09 11:38:05;;;;;;;1.73;1.40;;;22.00;97.60;;;;;;5320216;26;22979;-37
2024/04/09 11:40:38;;;;;;;1.73;1.37;;;21.80;97.70;;;;;;5320834;26;20462;-37
2024/04/09 11:43:07;;;;;;;1.60;1.17;;;22.10;97.90;;;;;;5320724;26;22614;-37
2024/04/09 11:45:36;;;;;;;1.50;1.37;;;22.40;98.10;;;;;;5318633;26;21992;-37
2024/04/09 11:48:06;;;;;;;1.10;0.93;;;22.10;97.80;;;;;;5316790;26;20489;-37
2024/04/09 11:50:38;;;;;;;2.10;1.70;;;22.00;97.40;;;;;;5318423;26;21445;-37
2024/04/09 11:53:05;;;;;;;1.90;1.20;;;21.90;97.40;;;;;;5320187;26;22491;-38
2024/04/09 11:55:35;;;;;;;3.10;1.20;;;21.90;97.70;;;;;;5316321;26;20469;-37
2024/04/09 11:58:00;;;;;;;3.60;1.23;;;22.10;97.10;;;;;;5317468;26;21208;-38
2024/04/09 12:00:29;;;;;;;1.60;1.40;;;21.80;96.90;;;;;;5315417;26;21183;-37
2024/04/09 12:03:00;;;;;;;1.40;1.20;;;22.00;96.90;;;;;;5319554;26;20232;-37
2024/04/09 12:05:30;;;;;;;2.40;1.50;;;21.80;97.20;;;;;;5318722;26;20472;-38
2024/04/09 12:08:03;;;;;;;1.43;1.10;;;22.00;97.20;;;;;;5317881;26;21053;-37
2024/04/09 12:10:35;;;;;;;4.33;1.27;;;21.90;97.10;;;;;;5317607;26;20477;-37
2024/04/09 12:13:09;;;;;;;1.30;1.20;;;21.80;96.90;;;;;;5320102;26;21957;-37
2024/04/09 12:15:42;;;;;;;1.43;1.30;;;21.90;97.30;;;;;;5314203;26;20495;-37
2024/04/09 12:18:12;;;;;;;1.40;1.20;;;21.80;96.60;;;;;;5320368;26;20644;-37
2024/04/09 12:20:41;;;;;;;1.30;1.17;;;22.00;96.80;;;;;;5319808;26;20465;-37
2024/04/09 12:23:12;;;;;;;1.30;1.10;;;21.80;97.10;;;;;;5320916;26;20521;-38
2024/04/09 12:25:42;;;;;;;1.30;1.17;;;22.40;97.60;;;;;;5317241;26;20484;-37
2024/04/09 12:28:08;;;;;;;1.57;1.47;;;22.30;97.50;;;;;;5319624;26;20934;-37
2024/04/09 12:30:44;;;;;;;3.13;1.10;;;22.10;97.10;;;;;;5322631;26;21338;-37
2024/04/09 12:33:19;;;;;;;1.37;1.00;;;22.10;97.20;;;;;;5321356;26;20526;-37
2024/04/09 12:35:50;;;;;;;1.40;1.20;;;22.10;96.90;;;;;;5320862;26;21238;-37
2024/04/09 12:38:33;;;;;;;2.07;1.40;;;22.10;96.90;;;;;;5317395;26;21323;-37
2024/04/09 12:41:03;;;;;;;1.30;1.20;;;22.20;97.00;;;;;;5319620;26;20526;-38
2024/04/09 12:43:34;;;;;;;1.70;1.20;;;22.30;96.50;;;;;;5316703;26;21121;-38
2024/04/09 12:46:02;;;;;;;1.50;1.13;;;22.20;96.50;;;;;;5317470;26;20484;-37
2024/04/09 12:48:39;;;;;;;1.43;1.30;;;22.00;96.60;;;;;;5314213;26;20583;-38
2024/04/09 12:51:12;;;;;;;3.07;2.03;;;22.20;96.50;;;;;;5312757;26;23323;-36
2024/04/09 12:53:45;;;;;;;1.20;0.97;;;22.40;96.60;;;;;;5315517;26;21435;-37
2024/04/09 12:56:12;;;;;;;1.27;1.00;;;22.10;96.40;;;;;;5316620;26;20457;-38
2024/04/09 12:58:41;;;;;;;1.63;1.20;;;22.20;96.50;;;;;;5312873;26;20620;-37
2024/04/09 13:01:07;;;;;;;1.30;1.13;;;22.20;96.60;;;;;;5314780;26;20986;-38
2024/04/09 13:03:36;;;;;;;2.00;1.57;;;22.20;96.60;;;;;;5313980;26;20603;-37
2024/04/09 13:06:05;;;;;;;1.30;1.10;;;22.30;96.50;;;;;;5317258;26;20707;-37
2024/04/09 13:08:38;;;;;;;2.23;1.13;;;22.40;96.90;;;;;;5313783;26;20513;-38
2024/04/09 13:11:16;;;;;;;1.20;1.00;;;22.30;96.80;;;;;;5315957;26;20469;-38